»·PEaware :: N326MC KSFO-KRNO

N326MC :: KSFO-KRNO

FLIGHT INFORMATION

Flight Status: Arrived
Operator: Privately registered:
United States
More flights under this callsign
Pilot: Anonymous 5456 (5456)
Aircraft: MITSUBISHI MU-2 MARQUISE
(MU2)
More flights by this aircraft type
Origin: KSFO San Francisco Intl
United States
Destination: KRNO Reno/Tahoe Intl
United States
More flights between these airports :: More routes between these airports
Route: +SFO4 OAK V6 SWR TRUCK FMG
File this flight plan on PilotEdge
Remarks:
Altitude:
(Current/Filed)
19,000ft
Speed:
(Current/Filed)
300kts
Departed: 28-Oct-17 09:24 AM
Arrived: 28-Oct-17 10:04 AM
Distance/Time
Traveled:
166nm/0:40
Distance/Time
To Go:
Arrived

Flight Plot

Page will automatically refresh every two minutes.

Flight plan parsing failed; only flown route is shown


Map Options




Map Legend


Flown Route
Filed Route
Departure Airport
Arrival Airport
Navaid (VOR, NDB)
Fix

Horizontal Profiles

Position Reports

Time Latitude Longitude Heading Altitude Ground
Speed
28-Oct-17 08:59 37.627730 -122.384298 296 17ft 0kts
28-Oct-17 09:00 37.627730 -122.384298 296 17ft 0kts
28-Oct-17 09:01 37.627730 -122.384298 298 17ft 0kts
28-Oct-17 09:02 37.627730 -122.384298 0 17ft 0kts
28-Oct-17 09:03 37.627730 -122.384298 298 17ft 0kts
28-Oct-17 09:04 37.627730 -122.384298 298 17ft 0kts
28-Oct-17 09:05 37.627730 -122.384298 298 17ft 0kts
28-Oct-17 09:12 37.627685 -122.384243 292 17ft 0kts
28-Oct-17 09:13 37.627685 -122.384243 292 17ft 0kts
28-Oct-17 09:14 37.627685 -122.384243 292 17ft 0kts
28-Oct-17 09:15 37.627685 -122.384243 292 17ft 0kts
28-Oct-17 09:16 37.627685 -122.384243 292 17ft 0kts
28-Oct-17 09:17 37.627685 -122.384243 292 17ft 0kts
28-Oct-17 09:18 37.627685 -122.384243 292 17ft 0kts
28-Oct-17 09:19 37.627685 -122.384243 292 17ft 0kts
28-Oct-17 09:20 37.627537 -122.384841 221 17ft 0kts
28-Oct-17 09:21 37.624757 -122.380202 117 17ft 18kts
28-Oct-17 09:22 37.622558 -122.375344 178 17ft 6kts
28-Oct-17 09:23 37.621731 -122.376343 226 17ft 15kts
28-Oct-17 09:24 37.618315 -122.379625 159 17ft 11kts
28-Oct-17 09:25 37.613090 -122.381954 206 16ft 25kts
28-Oct-17 09:26 37.607376 -122.384939 184 17ft 23kts
28-Oct-17 09:27 37.606845 -122.381980 105 17ft 0kts
28-Oct-17 09:28 37.606845 -122.381980 105 17ft 0kts
28-Oct-17 09:29 37.609017 -122.379280 27 17ft 91kts
28-Oct-17 09:30 37.644102 -122.347195 44 1370ft 190kts
28-Oct-17 09:31 37.679325 -122.302594 44 4155ft 179kts
28-Oct-17 09:32 37.712802 -122.253562 59 6279ft 204kts
28-Oct-17 09:33 37.749641 -122.199247 37 8394ft 213kts
28-Oct-17 09:34 37.795326 -122.152849 39 10553ft 217kts
28-Oct-17 09:35 37.842833 -122.104223 40 12506ft 227kts
28-Oct-17 09:36 37.892553 -122.053223 40 14427ft 236kts
28-Oct-17 09:37 37.944297 -122.000075 40 16259ft 245kts
28-Oct-17 09:38 37.997846 -121.944970 40 17990ft 255kts
28-Oct-17 09:39 38.054528 -121.886567 41 19011ft 287kts
28-Oct-17 09:40 38.119656 -121.819296 40 19007ft 318kts
28-Oct-17 09:41 38.191467 -121.750997 33 19003ft 329kts
28-Oct-17 09:42 38.269059 -121.690011 33 19026ft 332kts
28-Oct-17 09:43 38.347563 -121.627948 33 19025ft 333kts
28-Oct-17 09:44 38.422635 -121.568443 33 19024ft 334kts
28-Oct-17 09:45 38.483545 -121.484066 55 19021ft 330kts
28-Oct-17 09:46 38.537737 -121.390908 55 19026ft 331kts
28-Oct-17 09:47 38.587128 -121.306092 55 19026ft 331kts
28-Oct-17 09:48 38.641455 -121.212542 55 19027ft 331kts
28-Oct-17 09:49 38.695889 -121.118537 55 19053ft 332kts
28-Oct-17 09:50 38.750830 -121.023380 55 19054ft 333kts
28-Oct-17 09:51 38.805098 -120.929119 55 19107ft 333kts
28-Oct-17 09:52 38.860097 -120.833290 55 19054ft 335kts
28-Oct-17 09:53 38.914626 -120.738025 56 19164ft 332kts
28-Oct-17 09:54 38.969221 -120.642330 56 19217ft 334kts
28-Oct-17 09:55 39.023554 -120.546824 56 19220ft 336kts
28-Oct-17 09:56 39.078486 -120.449974 56 19217ft 336kts
28-Oct-17 09:57 39.131289 -120.356625 56 19273ft 334kts
28-Oct-17 09:58 39.190292 -120.267897 27 19219ft 343kts
28-Oct-17 09:59 39.276869 -120.229301 19 17052ft 317kts
28-Oct-17 10:00 39.357344 -120.195567 20 14914ft 295kts
28-Oct-17 10:01 39.430278 -120.159318 45 13039ft 271kts
28-Oct-17 10:02 39.452961 -120.079815 76 13018ft 228kts
28-Oct-17 10:03 39.469288 -119.992512 76 12177ft 271kts
28-Oct-17 10:04 39.488896 -119.894942 57 11026ft 285kts
28-Oct-17 10:05 39.555453 -119.878742 2 9713ft 254kts
28-Oct-17 10:06 39.591035 -119.812030 86 7628ft 255kts
28-Oct-17 10:07 39.555660 -119.764882 187 5688ft 223kts
28-Oct-17 10:08 39.499235 -119.766792 179 4419ft 140kts
28-Oct-17 10:09 39.489405 -119.766394 120 4419ft 11kts

Navigation Log

Ident Type
Flight plan parsing failed, navigation log unavailable